sensor_id;sensor_type;location;lat;lon;timestamp;temperature;humidity
12847;DHT22;6492;48.128;8.320;2023-08-21T00:03:54;18.50;77.30
12847;DHT22;6492;48.128;8.320;2023-08-21T00:07:55;18.50;77.50
12847;DHT22;6492;48.128;8.320;2023-08-21T00:11:59;18.40;77.10
12847;DHT22;6492;48.128;8.320;2023-08-21T00:16:00;18.40;77.30
12847;DHT22;6492;48.128;8.320;2023-08-21T00:20:03;18.40;77.60
12847;DHT22;6492;48.128;8.320;2023-08-21T00:24:05;18.40;78.20
12847;DHT22;6492;48.128;8.320;2023-08-21T00:28:08;18.40;78.50
12847;DHT22;6492;48.128;8.320;2023-08-21T00:32:10;18.40;78.50
12847;DHT22;6492;48.128;8.320;2023-08-21T00:36:13;18.30;78.50
12847;DHT22;6492;48.128;8.320;2023-08-21T00:40:14;18.30;78.70
12847;DHT22;6492;48.128;8.320;2023-08-21T00:44:18;18.30;78.70
12847;DHT22;6492;48.128;8.320;2023-08-21T00:48:20;18.30;78.80
12847;DHT22;6492;48.128;8.320;2023-08-21T00:52:22;18.30;79.00
12847;DHT22;6492;48.128;8.320;2023-08-21T00:56:24;18.30;78.90
12847;DHT22;6492;48.128;8.320;2023-08-21T01:00:27;18.20;78.70
12847;DHT22;6492;48.128;8.320;2023-08-21T01:04:30;18.10;78.70
12847;DHT22;6492;48.128;8.320;2023-08-21T01:08:40;18.20;79.30
12847;DHT22;6492;48.128;8.320;2023-08-21T01:12:49;18.20;79.30
12847;DHT22;6492;48.128;8.320;2023-08-21T01:16:56;18.20;79.40
12847;DHT22;6492;48.128;8.320;2023-08-21T01:21:02;18.20;79.30
12847;DHT22;6492;48.128;8.320;2023-08-21T01:25:07;18.10;79.20
12847;DHT22;6492;48.128;8.320;2023-08-21T01:29:09;18.10;79.40
12847;DHT22;6492;48.128;8.320;2023-08-21T01:33:12;18.10;79.30
12847;DHT22;6492;48.128;8.320;2023-08-21T01:37:17;18.00;79.10
12847;DHT22;6492;48.128;8.320;2023-08-21T01:41:23;18.00;79.10
12847;DHT22;6492;48.128;8.320;2023-08-21T01:45:25;18.00;79.30
12847;DHT22;6492;48.128;8.320;2023-08-21T01:49:27;17.90;79.40
12847;DHT22;6492;48.128;8.320;2023-08-21T01:53:29;18.00;79.60
12847;DHT22;6492;48.128;8.320;2023-08-21T01:57:32;18.00;80.00
12847;DHT22;6492;48.128;8.320;2023-08-21T02:01:34;18.00;80.10
12847;DHT22;6492;48.128;8.320;2023-08-21T02:05:39;18.00;80.10
12847;DHT22;6492;48.128;8.320;2023-08-21T02:09:41;18.00;80.40
12847;DHT22;6492;48.128;8.320;2023-08-21T02:13:44;18.00;80.50
12847;DHT22;6492;48.128;8.320;2023-08-21T02:17:46;18.00;80.40
12847;DHT22;6492;48.128;8.320;2023-08-21T02:21:48;18.00;80.40
12847;DHT22;6492;48.128;8.320;2023-08-21T02:25:50;18.00;80.40
12847;DHT22;6492;48.128;8.320;2023-08-21T02:29:53;17.90;80.40
12847;DHT22;6492;48.128;8.320;2023-08-21T02:33:55;18.00;80.50
12847;DHT22;6492;48.128;8.320;2023-08-21T02:37:57;18.00;80.50
12847;DHT22;6492;48.128;8.320;2023-08-21T02:41:59;18.00;80.70
12847;DHT22;6492;48.128;8.320;2023-08-21T02:46:02;18.00;80.80
12847;DHT22;6492;48.128;8.320;2023-08-21T02:50:04;18.00;80.90
12847;DHT22;6492;48.128;8.320;2023-08-21T02:54:06;18.00;80.80
12847;DHT22;6492;48.128;8.320;2023-08-21T02:58:17;18.00;80.90
12847;DHT22;6492;48.128;8.320;2023-08-21T03:02:21;18.00;80.90
12847;DHT22;6492;48.128;8.320;2023-08-21T03:06:23;18.00;80.70
12847;DHT22;6492;48.128;8.320;2023-08-21T03:10:24;18.00;80.60
12847;DHT22;6492;48.128;8.320;2023-08-21T03:14:27;18.00;80.60
12847;DHT22;6492;48.128;8.320;2023-08-21T03:18:31;17.90;80.60
12847;DHT22;6492;48.128;8.320;2023-08-21T03:22:33;17.90;80.60
12847;DHT22;6492;48.128;8.320;2023-08-21T03:26:35;17.90;80.70
12847;DHT22;6492;48.128;8.320;2023-08-21T03:30:39;17.80;80.60
12847;DHT22;6492;48.128;8.320;2023-08-21T03:34:42;17.70;80.50
12847;DHT22;6492;48.128;8.320;2023-08-21T03:38:44;17.60;80.20
12847;DHT22;6492;48.128;8.320;2023-08-21T03:42:46;17.60;80.40
12847;DHT22;6492;48.128;8.320;2023-08-21T03:46:48;17.50;80.50
12847;DHT22;6492;48.128;8.320;2023-08-21T03:50:51;17.50;80.80
12847;DHT22;6492;48.128;8.320;2023-08-21T03:54:53;17.50;80.80
12847;DHT22;6492;48.128;8.320;2023-08-21T03:58:54;17.50;81.20
12847;DHT22;6492;48.128;8.320;2023-08-21T04:02:57;17.50;81.40
12847;DHT22;6492;48.128;8.320;2023-08-21T04:07:00;17.50;81.50
12847;DHT22;6492;48.128;8.320;2023-08-21T04:11:02;17.50;81.60
12847;DHT22;6492;48.128;8.320;2023-08-21T04:15:05;17.50;82.40
12847;DHT22;6492;48.128;8.320;2023-08-21T04:19:07;17.40;81.50
12847;DHT22;6492;48.128;8.320;2023-08-21T04:23:10;17.40;81.50
12847;DHT22;6492;48.128;8.320;2023-08-21T04:27:12;17.40;81.50
12847;DHT22;6492;48.128;8.320;2023-08-21T04:31:14;17.40;81.50
12847;DHT22;6492;48.128;8.320;2023-08-21T04:35:18;17.30;81.60
12847;DHT22;6492;48.128;8.320;2023-08-21T04:39:21;17.30;81.70
12847;DHT22;6492;48.128;8.320;2023-08-21T04:43:23;17.30;81.80
12847;DHT22;6492;48.128;8.320;2023-08-21T04:47:26;17.40;82.00
12847;DHT22;6492;48.128;8.320;2023-08-21T04:51:30;17.40;82.10
12847;DHT22;6492;48.128;8.320;2023-08-21T04:55:33;17.40;82.20
12847;DHT22;6492;48.128;8.320;2023-08-21T04:59:35;17.40;82.20
12847;DHT22;6492;48.128;8.320;2023-08-21T05:03:36;17.50;83.30
12847;DHT22;6492;48.128;8.320;2023-08-21T05:07:38;17.60;82.60
12847;DHT22;6492;48.128;8.320;2023-08-21T05:11:42;17.60;82.70
12847;DHT22;6492;48.128;8.320;2023-08-21T05:15:43;17.70;82.80
12847;DHT22;6492;48.128;8.320;2023-08-21T05:19:45;17.70;82.90
12847;DHT22;6492;48.128;8.320;2023-08-21T05:23:47;17.80;82.90
12847;DHT22;6492;48.128;8.320;2023-08-21T05:27:50;17.80;83.00
12847;DHT22;6492;48.128;8.320;2023-08-21T05:31:52;17.90;83.10
12847;DHT22;6492;48.128;8.320;2023-08-21T05:35:56;17.90;83.20
12847;DHT22;6492;48.128;8.320;2023-08-21T05:39:58;18.00;83.20
12847;DHT22;6492;48.128;8.320;2023-08-21T05:44:01;18.10;83.30
12847;DHT22;6492;48.128;8.320;2023-08-21T05:48:03;18.10;83.30
12847;DHT22;6492;48.128;8.320;2023-08-21T05:52:06;18.20;83.30
12847;DHT22;6492;48.128;8.320;2023-08-21T05:56:08;18.30;83.50
12847;DHT22;6492;48.128;8.320;2023-08-21T06:00:12;18.40;83.40
12847;DHT22;6492;48.128;8.320;2023-08-21T06:04:15;18.40;83.50
12847;DHT22;6492;48.128;8.320;2023-08-21T06:08:19;18.50;83.50
12847;DHT22;6492;48.128;8.320;2023-08-21T06:12:20;18.60;83.50
12847;DHT22;6492;48.128;8.320;2023-08-21T06:16:24;18.70;83.40
12847;DHT22;6492;48.128;8.320;2023-08-21T06:20:25;18.80;82.90
12847;DHT22;6492;48.128;8.320;2023-08-21T06:24:27;19.00;82.20
12847;DHT22;6492;48.128;8.320;2023-08-21T06:28:29;19.10;81.50
12847;DHT22;6492;48.128;8.320;2023-08-21T06:32:35;19.20;80.50
12847;DHT22;6492;48.128;8.320;2023-08-21T06:36:36;19.30;80.50
12847;DHT22;6492;48.128;8.320;2023-08-21T06:40:40;19.50;79.20
12847;DHT22;6492;48.128;8.320;2023-08-21T06:44:42;19.70;78.60
12847;DHT22;6492;48.128;8.320;2023-08-21T06:48:45;19.80;77.80
12847;DHT22;6492;48.128;8.320;2023-08-21T06:52:47;20.00;76.30
12847;DHT22;6492;48.128;8.320;2023-08-21T06:56:49;20.20;74.50
12847;DHT22;6492;48.128;8.320;2023-08-21T07:00:52;20.40;72.00
12847;DHT22;6492;48.128;8.320;2023-08-21T07:04:56;20.60;70.10
12847;DHT22;6492;48.128;8.320;2023-08-21T07:08:58;20.80;67.80
12847;DHT22;6492;48.128;8.320;2023-08-21T07:13:00;21.00;65.80
12847;DHT22;6492;48.128;8.320;2023-08-21T07:17:02;21.10;64.10
12847;DHT22;6492;48.128;8.320;2023-08-21T07:21:07;21.30;62.40
12847;DHT22;6492;48.128;8.320;2023-08-21T07:25:09;21.50;58.50
12847;DHT22;6492;48.128;8.320;2023-08-21T07:29:11;21.70;55.10
12847;DHT22;6492;48.128;8.320;2023-08-21T07:33:13;22.00;53.20
12847;DHT22;6492;48.128;8.320;2023-08-21T07:37:16;22.30;50.00
12847;DHT22;6492;48.128;8.320;2023-08-21T07:41:22;22.80;41.80
12847;DHT22;6492;48.128;8.320;2023-08-21T07:45:24;23.30;39.90
12847;DHT22;6492;48.128;8.320;2023-08-21T07:49:25;23.90;37.50
12847;DHT22;6492;48.128;8.320;2023-08-21T07:53:30;24.70;31.90
12847;DHT22;6492;48.128;8.320;2023-08-21T07:57:33;26.00;23.90
12847;DHT22;6492;48.128;8.320;2023-08-21T08:01:35;27.20;17.30
12847;DHT22;6492;48.128;8.320;2023-08-21T08:05:37;28.50;12.80
12847;DHT22;6492;48.128;8.320;2023-08-21T08:09:41;29.50;8.50
12847;DHT22;6492;48.128;8.320;2023-08-21T08:13:43;30.30;4.30
12847;DHT22;6492;48.128;8.320;2023-08-21T08:17:44;31.20;2.50
12847;DHT22;6492;48.128;8.320;2023-08-21T08:21:46;31.90;1.00
12847;DHT22;6492;48.128;8.320;2023-08-21T08:25:50;32.40;1.00
12847;DHT22;6492;48.128;8.320;2023-08-21T08:29:52;32.80;1.00
12847;DHT22;6492;48.128;8.320;2023-08-21T08:33:54;32.80;1.00
12847;DHT22;6492;48.128;8.320;2023-08-21T08:37:55;33.00;1.00
12847;DHT22;6492;48.128;8.320;2023-08-21T08:42:03;33.00;1.00
12847;DHT22;6492;48.128;8.320;2023-08-21T08:46:07;32.70;1.00
12847;DHT22;6492;48.128;8.320;2023-08-21T08:50:11;32.60;1.00
12847;DHT22;6492;48.128;8.320;2023-08-21T08:54:13;32.50;1.00
12847;DHT22;6492;48.128;8.320;2023-08-21T08:58:16;32.60;1.00
12847;DHT22;6492;48.128;8.320;2023-08-21T09:02:18;32.50;1.00
12847;DHT22;6492;48.128;8.320;2023-08-21T09:06:20;32.50;1.00
12847;DHT22;6492;48.128;8.320;2023-08-21T09:10:25;32.30;1.00
12847;DHT22;6492;48.128;8.320;2023-08-21T09:14:29;32.30;1.00
12847;DHT22;6492;48.128;8.320;2023-08-21T09:18:34;32.30;1.00
12847;DHT22;6492;48.128;8.320;2023-08-21T09:22:36;32.10;1.00
12847;DHT22;6492;48.128;8.320;2023-08-21T09:26:37;32.30;1.00
12847;DHT22;6492;48.128;8.320;2023-08-21T09:30:49;32.40;1.00
12847;DHT22;6492;48.128;8.320;2023-08-21T09:34:51;32.80;1.00
12847;DHT22;6492;48.128;8.320;2023-08-21T09:38:53;32.90;1.00
12847;DHT22;6492;48.128;8.320;2023-08-21T09:42:56;33.30;1.00
12847;DHT22;6492;48.128;8.320;2023-08-21T09:46:59;33.70;1.00
12847;DHT22;6492;48.128;8.320;2023-08-21T09:51:01;33.90;1.00
12847;DHT22;6492;48.128;8.320;2023-08-21T09:55:05;33.90;1.00
12847;DHT22;6492;48.128;8.320;2023-08-21T09:59:07;33.90;1.00
12847;DHT22;6492;48.128;8.320;2023-08-21T10:03:18;33.80;1.00
12847;DHT22;6492;48.128;8.320;2023-08-21T10:07:25;34.30;1.00
12847;DHT22;6492;48.128;8.320;2023-08-21T10:11:29;34.90;1.00
12847;DHT22;6492;48.128;8.320;2023-08-21T10:15:31;35.50;1.00
12847;DHT22;6492;48.128;8.320;2023-08-21T10:19:36;35.40;1.00
12847;DHT22;6492;48.128;8.320;2023-08-21T10:23:38;34.70;1.00
12847;DHT22;6492;48.128;8.320;2023-08-21T10:27:40;34.00;1.00
12847;DHT22;6492;48.128;8.320;2023-08-21T10:31:43;33.40;1.00
12847;DHT22;6492;48.128;8.320;2023-08-21T10:35:46;33.70;1.00
12847;DHT22;6492;48.128;8.320;2023-08-21T10:39:57;34.10;1.00
12847;DHT22;6492;48.128;8.320;2023-08-21T10:43:59;34.70;1.00
12847;DHT22;6492;48.128;8.320;2023-08-21T10:48:02;34.90;1.00
12847;DHT22;6492;48.128;8.320;2023-08-21T10:52:07;34.70;1.00
12847;DHT22;6492;48.128;8.320;2023-08-21T10:56:12;34.00;1.00
12847;DHT22;6492;48.128;8.320;2023-08-21T11:00:16;33.20;1.00
12847;DHT22;6492;48.128;8.320;2023-08-21T11:04:18;32.70;1.00
12847;DHT22;6492;48.128;8.320;2023-08-21T11:08:22;32.00;1.00
12847;DHT22;6492;48.128;8.320;2023-08-21T11:12:24;31.90;1.00
12847;DHT22;6492;48.128;8.320;2023-08-21T11:16:32;32.30;1.00
12847;DHT22;6492;48.128;8.320;2023-08-21T11:20:35;32.70;1.00
12847;DHT22;6492;48.128;8.320;2023-08-21T11:24:43;33.00;1.00
12847;DHT22;6492;48.128;8.320;2023-08-21T11:28:46;33.20;1.00
12847;DHT22;6492;48.128;8.320;2023-08-21T11:32:48;33.60;1.00
12847;DHT22;6492;48.128;8.320;2023-08-21T11:36:50;34.60;1.00
12847;DHT22;6492;48.128;8.320;2023-08-21T11:40:57;35.60;1.00
12847;DHT22;6492;48.128;8.320;2023-08-21T11:45:00;35.40;1.00
12847;DHT22;6492;48.128;8.320;2023-08-21T11:49:04;34.90;1.00
12847;DHT22;6492;48.128;8.320;2023-08-21T11:53:09;34.40;1.00
12847;DHT22;6492;48.128;8.320;2023-08-21T11:57:14;34.60;1.00
12847;DHT22;6492;48.128;8.320;2023-08-21T12:01:17;35.20;1.00
12847;DHT22;6492;48.128;8.320;2023-08-21T12:05:19;35.10;1.00
12847;DHT22;6492;48.128;8.320;2023-08-21T12:09:22;34.40;1.00
12847;DHT22;6492;48.128;8.320;2023-08-21T12:13:25;33.50;1.00
12847;DHT22;6492;48.128;8.320;2023-08-21T12:17:27;33.00;1.00
12847;DHT22;6492;48.128;8.320;2023-08-21T12:21:29;33.30;1.00
12847;DHT22;6492;48.128;8.320;2023-08-21T12:25:33;34.30;1.00
12847;DHT22;6492;48.128;8.320;2023-08-21T12:29:36;35.40;1.00
12847;DHT22;6492;48.128;8.320;2023-08-21T12:33:38;35.80;1.00
12847;DHT22;6492;48.128;8.320;2023-08-21T12:37:40;36.10;1.00
12847;DHT22;6492;48.128;8.320;2023-08-21T12:41:42;36.30;1.00
12847;DHT22;6492;48.128;8.320;2023-08-21T12:45:45;36.50;1.00
12847;DHT22;6492;48.128;8.320;2023-08-21T12:49:47;37.00;1.00
12847;DHT22;6492;48.128;8.320;2023-08-21T12:53:49;37.60;1.00
12847;DHT22;6492;48.128;8.320;2023-08-21T12:57:52;37.70;1.00
12847;DHT22;6492;48.128;8.320;2023-08-21T13:01:55;37.20;1.00
12847;DHT22;6492;48.128;8.320;2023-08-21T13:05:57;37.10;1.00
12847;DHT22;6492;48.128;8.320;2023-08-21T13:10:00;37.40;1.00
12847;DHT22;6492;48.128;8.320;2023-08-21T13:14:02;37.90;1.00
12847;DHT22;6492;48.128;8.320;2023-08-21T13:18:05;38.50;1.00
12847;DHT22;6492;48.128;8.320;2023-08-21T13:22:07;38.50;1.00
12847;DHT22;6492;48.128;8.320;2023-08-21T13:26:09;38.10;1.00
12847;DHT22;6492;48.128;8.320;2023-08-21T13:30:12;37.90;1.00
12847;DHT22;6492;48.128;8.320;2023-08-21T13:34:15;37.40;1.00
12847;DHT22;6492;48.128;8.320;2023-08-21T13:38:18;36.80;1.00
12847;DHT22;6492;48.128;8.320;2023-08-21T13:42:20;36.40;1.00
12847;DHT22;6492;48.128;8.320;2023-08-21T13:46:21;36.00;1.00
12847;DHT22;6492;48.128;8.320;2023-08-21T13:50:25;36.20;1.00
12847;DHT22;6492;48.128;8.320;2023-08-21T13:54:26;36.70;1.00
12847;DHT22;6492;48.128;8.320;2023-08-21T13:58:30;37.10;1.00
12847;DHT22;6492;48.128;8.320;2023-08-21T14:02:31;37.30;1.00
12847;DHT22;6492;48.128;8.320;2023-08-21T14:06:35;37.50;1.00
12847;DHT22;6492;48.128;8.320;2023-08-21T14:10:37;36.90;1.00
12847;DHT22;6492;48.128;8.320;2023-08-21T14:14:40;36.50;1.00
12847;DHT22;6492;48.128;8.320;2023-08-21T14:18:41;35.90;1.00
12847;DHT22;6492;48.128;8.320;2023-08-21T14:22:45;35.50;1.00
12847;DHT22;6492;48.128;8.320;2023-08-21T14:26:47;35.30;1.00
12847;DHT22;6492;48.128;8.320;2023-08-21T14:30:49;35.10;1.00
12847;DHT22;6492;48.128;8.320;2023-08-21T14:34:52;34.80;1.00
12847;DHT22;6492;48.128;8.320;2023-08-21T14:38:56;34.50;1.00
12847;DHT22;6492;48.128;8.320;2023-08-21T14:42:57;34.90;1.00
12847;DHT22;6492;48.128;8.320;2023-08-21T14:46:59;35.00;1.00
12847;DHT22;6492;48.128;8.320;2023-08-21T14:51:01;34.60;1.00
12847;DHT22;6492;48.128;8.320;2023-08-21T14:55:05;34.20;1.00
12847;DHT22;6492;48.128;8.320;2023-08-21T14:59:07;34.50;1.00
12847;DHT22;6492;48.128;8.320;2023-08-21T15:03:11;34.80;1.00
12847;DHT22;6492;48.128;8.320;2023-08-21T15:07:13;35.20;1.00
12847;DHT22;6492;48.128;8.320;2023-08-21T15:11:16;35.40;1.00
12847;DHT22;6492;48.128;8.320;2023-08-21T15:15:18;35.20;1.00
12847;DHT22;6492;48.128;8.320;2023-08-21T15:19:21;35.10;1.00
12847;DHT22;6492;48.128;8.320;2023-08-21T15:23:22;35.10;1.00
12847;DHT22;6492;48.128;8.320;2023-08-21T15:27:28;35.00;1.00
12847;DHT22;6492;48.128;8.320;2023-08-21T15:31:30;34.80;1.00
12847;DHT22;6492;48.128;8.320;2023-08-21T15:35:32;34.70;1.00
12847;DHT22;6492;48.128;8.320;2023-08-21T15:39:34;34.70;1.00
12847;DHT22;6492;48.128;8.320;2023-08-21T15:43:37;34.90;1.00
12847;DHT22;6492;48.128;8.320;2023-08-21T15:47:39;34.90;1.00
12847;DHT22;6492;48.128;8.320;2023-08-21T15:51:44;35.00;1.00
12847;DHT22;6492;48.128;8.320;2023-08-21T15:55:47;34.70;1.00
12847;DHT22;6492;48.128;8.320;2023-08-21T15:59:51;34.50;1.00
12847;DHT22;6492;48.128;8.320;2023-08-21T16:03:57;34.30;1.00
12847;DHT22;6492;48.128;8.320;2023-08-21T16:08:01;33.90;1.00
12847;DHT22;6492;48.128;8.320;2023-08-21T16:12:03;33.70;1.00
12847;DHT22;6492;48.128;8.320;2023-08-21T16:16:06;33.40;1.00
12847;DHT22;6492;48.128;8.320;2023-08-21T16:20:09;32.90;1.00
12847;DHT22;6492;48.128;8.320;2023-08-21T16:24:11;32.60;1.00
12847;DHT22;6492;48.128;8.320;2023-08-21T16:28:13;32.50;1.00
12847;DHT22;6492;48.128;8.320;2023-08-21T16:32:16;32.50;1.00
12847;DHT22;6492;48.128;8.320;2023-08-21T16:36:18;32.50;1.00
12847;DHT22;6492;48.128;8.320;2023-08-21T16:40:20;32.40;1.00
12847;DHT22;6492;48.128;8.320;2023-08-21T16:44:23;32.30;1.00
12847;DHT22;6492;48.128;8.320;2023-08-21T16:48:27;32.40;1.00
12847;DHT22;6492;48.128;8.320;2023-08-21T16:52:29;32.20;1.00
12847;DHT22;6492;48.128;8.320;2023-08-21T16:56:36;32.10;1.00
12847;DHT22;6492;48.128;8.320;2023-08-21T17:00:38;32.10;1.00
12847;DHT22;6492;48.128;8.320;2023-08-21T17:04:41;32.00;1.00
12847;DHT22;6492;48.128;8.320;2023-08-21T17:08:45;31.80;1.00
12847;DHT22;6492;48.128;8.320;2023-08-21T17:12:47;31.70;1.00
12847;DHT22;6492;48.128;8.320;2023-08-21T17:16:49;31.60;1.00
12847;DHT22;6492;48.128;8.320;2023-08-21T17:20:52;31.30;1.00
12847;DHT22;6492;48.128;8.320;2023-08-21T17:24:54;31.00;1.00
12847;DHT22;6492;48.128;8.320;2023-08-21T17:28:56;30.90;1.00
12847;DHT22;6492;48.128;8.320;2023-08-21T17:32:58;30.80;1.00
12847;DHT22;6492;48.128;8.320;2023-08-21T17:37:01;30.50;1.00
12847;DHT22;6492;48.128;8.320;2023-08-21T17:41:03;30.30;1.00
12847;DHT22;6492;48.128;8.320;2023-08-21T17:45:10;29.90;1.00
12847;DHT22;6492;48.128;8.320;2023-08-21T17:49:12;29.70;1.00
12847;DHT22;6492;48.128;8.320;2023-08-21T17:53:15;29.40;1.00
12847;DHT22;6492;48.128;8.320;2023-08-21T17:57:18;29.00;1.00
12847;DHT22;6492;48.128;8.320;2023-08-21T18:01:20;28.60;1.00
12847;DHT22;6492;48.128;8.320;2023-08-21T18:05:22;28.20;1.00
12847;DHT22;6492;48.128;8.320;2023-08-21T18:09:25;27.70;2.40
12847;DHT22;6492;48.128;8.320;2023-08-21T18:13:27;27.30;3.40
12847;DHT22;6492;48.128;8.320;2023-08-21T18:17:29;26.80;4.40
12847;DHT22;6492;48.128;8.320;2023-08-21T18:21:31;26.40;6.10
12847;DHT22;6492;48.128;8.320;2023-08-21T18:25:34;26.00;7.20
12847;DHT22;6492;48.128;8.320;2023-08-21T18:29:36;25.70;8.70
12847;DHT22;6492;48.128;8.320;2023-08-21T18:33:40;25.40;11.30
12847;DHT22;6492;48.128;8.320;2023-08-21T18:37:42;25.00;12.80
12847;DHT22;6492;48.128;8.320;2023-08-21T18:41:45;24.70;14.70
12847;DHT22;6492;48.128;8.320;2023-08-21T18:45:47;24.40;15.80
12847;DHT22;6492;48.128;8.320;2023-08-21T18:49:51;24.10;17.60
12847;DHT22;6492;48.128;8.320;2023-08-21T18:54:04;23.90;18.30
12847;DHT22;6492;48.128;8.320;2023-08-21T18:58:15;23.60;19.50
12847;DHT22;6492;48.128;8.320;2023-08-21T19:02:18;23.40;20.60
12847;DHT22;6492;48.128;8.320;2023-08-21T19:06:33;23.10;21.40
12847;DHT22;6492;48.128;8.320;2023-08-21T19:11:02;23.00;22.00
12847;DHT22;6492;48.128;8.320;2023-08-21T19:15:09;22.80;22.60
12847;DHT22;6492;48.128;8.320;2023-08-21T19:19:12;22.70;23.30
12847;DHT22;6492;48.128;8.320;2023-08-21T19:23:21;22.60;24.00
12847;DHT22;6492;48.128;8.320;2023-08-21T19:27:23;22.50;25.70
12847;DHT22;6492;48.128;8.320;2023-08-21T19:31:33;22.40;26.90
12847;DHT22;6492;48.128;8.320;2023-08-21T19:35:35;22.20;27.20
12847;DHT22;6492;48.128;8.320;2023-08-21T19:39:38;22.20;27.90
12847;DHT22;6492;48.128;8.320;2023-08-21T19:43:41;22.00;28.70
12847;DHT22;6492;48.128;8.320;2023-08-21T19:47:45;21.90;28.90
12847;DHT22;6492;48.128;8.320;2023-08-21T19:51:49;21.80;30.30
12847;DHT22;6492;48.128;8.320;2023-08-21T19:55:52;21.70;31.10
12847;DHT22;6492;48.128;8.320;2023-08-21T19:59:54;21.60;30.90
12847;DHT22;6492;48.128;8.320;2023-08-21T20:03:58;21.50;31.60
12847;DHT22;6492;48.128;8.320;2023-08-21T20:08:00;21.30;32.00
12847;DHT22;6492;48.128;8.320;2023-08-21T20:12:08;21.20;33.40
12847;DHT22;6492;48.128;8.320;2023-08-21T20:16:10;21.10;34.30
12847;DHT22;6492;48.128;8.320;2023-08-21T20:20:17;21.00;34.70
12847;DHT22;6492;48.128;8.320;2023-08-21T20:24:19;20.90;35.50
12847;DHT22;6492;48.128;8.320;2023-08-21T20:28:24;20.80;36.40
12847;DHT22;6492;48.128;8.320;2023-08-21T20:32:27;20.70;39.80
12847;DHT22;6492;48.128;8.320;2023-08-21T20:36:30;20.70;39.90
12847;DHT22;6492;48.128;8.320;2023-08-21T20:40:32;20.70;39.40
12847;DHT22;6492;48.128;8.320;2023-08-21T20:44:40;20.60;39.20
12847;DHT22;6492;48.128;8.320;2023-08-21T20:48:42;20.50;42.00
12847;DHT22;6492;48.128;8.320;2023-08-21T20:52:45;20.40;43.00
12847;DHT22;6492;48.128;8.320;2023-08-21T20:56:47;20.40;44.50
12847;DHT22;6492;48.128;8.320;2023-08-21T21:00:49;20.30;44.10
12847;DHT22;6492;48.128;8.320;2023-08-21T21:04:51;20.20;43.90
12847;DHT22;6492;48.128;8.320;2023-08-21T21:08:55;20.10;44.60
12847;DHT22;6492;48.128;8.320;2023-08-21T21:12:57;20.00;45.40
12847;DHT22;6492;48.128;8.320;2023-08-21T21:16:59;20.00;46.60
12847;DHT22;6492;48.128;8.320;2023-08-21T21:21:01;20.00;47.30
12847;DHT22;6492;48.128;8.320;2023-08-21T21:25:05;20.00;46.60
12847;DHT22;6492;48.128;8.320;2023-08-21T21:29:07;19.90;46.20
12847;DHT22;6492;48.128;8.320;2023-08-21T21:33:09;19.90;47.80
12847;DHT22;6492;48.128;8.320;2023-08-21T21:37:11;20.00;46.60
12847;DHT22;6492;48.128;8.320;2023-08-21T21:41:14;20.00;46.90
12847;DHT22;6492;48.128;8.320;2023-08-21T21:45:16;19.90;46.20
12847;DHT22;6492;48.128;8.320;2023-08-21T21:49:18;19.80;46.00
12847;DHT22;6492;48.128;8.320;2023-08-21T21:53:24;19.60;46.70
12847;DHT22;6492;48.128;8.320;2023-08-21T21:57:27;19.50;49.90
12847;DHT22;6492;48.128;8.320;2023-08-21T22:01:30;19.50;53.10
12847;DHT22;6492;48.128;8.320;2023-08-21T22:05:32;19.40;52.40
12847;DHT22;6492;48.128;8.320;2023-08-21T22:09:33;19.40;52.50
12847;DHT22;6492;48.128;8.320;2023-08-21T22:13:36;19.30;54.30
12847;DHT22;6492;48.128;8.320;2023-08-21T22:17:44;19.40;57.10
12847;DHT22;6492;48.128;8.320;2023-08-21T22:21:46;19.40;57.30
12847;DHT22;6492;48.128;8.320;2023-08-21T22:25:48;19.40;56.40
12847;DHT22;6492;48.128;8.320;2023-08-21T22:29:51;19.40;56.30
12847;DHT22;6492;48.128;8.320;2023-08-21T22:33:53;19.40;55.90
12847;DHT22;6492;48.128;8.320;2023-08-21T22:37:55;19.30;55.40
12847;DHT22;6492;48.128;8.320;2023-08-21T22:41:57;19.20;56.80
12847;DHT22;6492;48.128;8.320;2023-08-21T22:46:03;19.20;57.30
12847;DHT22;6492;48.128;8.320;2023-08-21T22:50:06;19.20;59.30
12847;DHT22;6492;48.128;8.320;2023-08-21T22:54:08;19.30;60.20
12847;DHT22;6492;48.128;8.320;2023-08-21T22:58:10;19.20;59.20
12847;DHT22;6492;48.128;8.320;2023-08-21T23:02:13;19.20;58.30
12847;DHT22;6492;48.128;8.320;2023-08-21T23:06:15;19.10;59.00
12847;DHT22;6492;48.128;8.320;2023-08-21T23:10:18;19.10;61.40
12847;DHT22;6492;48.128;8.320;2023-08-21T23:14:20;19.10;61.30
12847;DHT22;6492;48.128;8.320;2023-08-21T23:18:23;19.10;60.20
12847;DHT22;6492;48.128;8.320;2023-08-21T23:22:25;19.00;60.40
12847;DHT22;6492;48.128;8.320;2023-08-21T23:26:27;18.90;61.70
12847;DHT22;6492;48.128;8.320;2023-08-21T23:30:28;19.00;63.50
12847;DHT22;6492;48.128;8.320;2023-08-21T23:34:32;19.00;63.10
12847;DHT22;6492;48.128;8.320;2023-08-21T23:38:33;18.90;62.80
12847;DHT22;6492;48.128;8.320;2023-08-21T23:42:35;18.90;63.10
12847;DHT22;6492;48.128;8.320;2023-08-21T23:46:37;18.90;65.00
12847;DHT22;6492;48.128;8.320;2023-08-21T23:50:40;19.00;64.40
12847;DHT22;6492;48.128;8.320;2023-08-21T23:54:42;19.00;63.60
12847;DHT22;6492;48.128;8.320;2023-08-21T23:58:44;18.90;63.40
